Time;durP1;ratioP1;P1;durP2;ratioP2;P2;SDS_P1;SDS_P2;PMS_P1;PMS_P2;Temp;Humidity;BMP_temperature;BMP_pressure;BME280_temperature;BME280_humidity;BME280_pressure;Samples;Min_cycle;Max_cycle;Signal;HPM_P1;HPM_P2
2021/10/06 00:18:25;;;;;;;0.40;0.40;;;12.60;99.90;;;;;;4293591;33;20085;-68
2021/10/06 00:35:56;;;;;;;;;;;;;;;;;;;;;
2021/10/06 00:39:25;;;;;;;;;;;;;;;;;;;;;
2021/10/06 00:42:58;;;;;;;;;;;;;;;;;;;;;
2021/10/06 00:46:04;;;;;;;;;;;;;;;;;;;;;
2021/10/06 00:52:24;;;;;;;1.60;0.62;;;12.10;99.90;;;;;;4281297;33;20101;-68
2021/10/06 01:06:15;;;;;;;0.50;0.50;;;12.00;99.90;;;;;;4235062;33;20096;-67
2021/10/06 01:20:31;;;;;;;0.35;0.32;;;12.00;99.90;;;;;;4212958;33;20156;-68
2021/10/06 01:23:57;;;;;;;0.62;0.50;;;12.10;99.90;;;;;;4238864;33;20077;-66
2021/10/06 01:27:15;;;;;;;;;;;;;;;;;;;;;
2021/10/06 01:30:46;;;;;;;;;;;;;;;;;;;;;
2021/10/06 01:37:40;;;;;;;;;;;;;;;;;;;;;
2021/10/06 01:47:10;;;;;;;0.40;0.40;;;12.10;99.90;;;;;;4238828;33;20422;-67
2021/10/06 02:04:40;;;;;;;;;;;;;;;;;;;;;
2021/10/06 02:17:59;;;;;;;;;;;;;;;;;;;;;
2021/10/06 02:21:07;;;;;;;;;;;;;;;;;;;;;
2021/10/06 02:24:50;;;;;;;;;;;;;;;;;;;;;
2021/10/06 02:28:30;;;;;;;0.35;0.35;;;12.60;99.90;;;;;;4317810;33;20116;-67
2021/10/06 02:35:02;;;;;;;2.45;0.43;;;12.70;99.90;;;;;;4312429;33;20255;-65
2021/10/06 02:55:09;;;;;;;0.37;0.37;;;12.80;99.90;;;;;;4254007;33;20067;-71
2021/10/06 03:08:31;;;;;;;0.40;0.40;;;12.80;99.90;;;;;;4306012;33;20147;-68
2021/10/06 03:18:02;;;;;;;0.57;0.57;;;13.00;99.90;;;;;;4353590;33;20087;-68
2021/10/06 03:21:24;;;;;;;;;;;;;;;;;;;;;
2021/10/06 03:27:26;;;;;;;2.03;0.60;;;13.00;99.90;;;;;;4338913;33;20119;-69
2021/10/06 03:30:38;;;;;;;0.43;0.43;;;12.90;99.90;;;;;;4327442;33;20159;-69
2021/10/06 03:33:51;;;;;;;0.62;0.47;;;12.90;99.90;;;;;;4294540;33;20069;-68
2021/10/06 03:37:07;;;;;;;0.40;0.40;;;13.00;99.90;;;;;;4290883;33;20511;-68
2021/10/06 03:39:41;;;;;;;0.73;0.73;;;13.00;99.90;;;;;;4349599;32;20074;-68
2021/10/06 03:57:29;;;;;;;1.67;1.12;;;12.90;99.90;;;;;;4295066;33;20088;-68
2021/10/06 04:07:35;;;;;;;;;;;;;;;;;;;;;
2021/10/06 04:13:59;;;;;;;0.30;0.30;;;13.00;99.90;;;;;;4280600;33;20158;-66
2021/10/06 04:17:02;;;;;;;0.40;0.40;;;13.00;99.90;;;;;;4283498;33;20077;-68
2021/10/06 04:20:06;;;;;;;1.55;1.02;;;13.00;99.90;;;;;;4297106;33;20551;-68
2021/10/06 04:23:25;;;;;;;0.30;0.30;;;12.90;99.90;;;;;;4299049;33;20535;-69
2021/10/06 04:26:10;;;;;;;0.35;0.35;;;12.90;99.90;;;;;;4353533;33;20075;-70
2021/10/06 04:32:28;;;;;;;;;;;;;;;;;;;;;
2021/10/06 04:35:44;;;;;;;0.65;0.55;;;13.00;99.90;;;;;;4348580;32;20083;-68
2021/10/06 04:39:08;;;;;;;3.65;0.50;;;13.00;99.90;;;;;;4384814;32;20237;-69
2021/10/06 04:41:43;;;;;;;0.40;0.40;;;13.00;99.90;;;;;;4310709;33;20072;-68
2021/10/06 04:52:23;;;;;;;0.52;0.52;;;13.00;99.90;;;;;;4275996;33;20100;-67
2021/10/06 04:57:58;;;;;;;;;;;;;;;;;;;;;
2021/10/06 05:03:58;;;;;;;0.60;0.43;;;12.90;99.90;;;;;;4302164;33;20551;-70
2021/10/06 05:14:18;;;;;;;;;;;;;;;;;;;;;
2021/10/06 05:16:36;;;;;;;0.52;0.40;;;12.80;99.90;;;;;;4312967;33;20458;-70
2021/10/06 05:19:07;;;;;;;0.22;0.22;;;12.70;99.90;;;;;;4374135;32;20234;-68
2021/10/06 05:22:26;;;;;;;;;;;;;;;;;;;;;
2021/10/06 05:25:42;;;;;;;0.50;0.50;;;12.70;99.90;;;;;;4397469;32;20100;-66
2021/10/06 05:28:51;;;;;;;0.75;0.50;;;12.60;99.90;;;;;;4404778;32;20132;-68
2021/10/06 05:31:16;;;;;;;0.40;0.40;;;12.60;99.90;;;;;;4403829;32;20117;-69
2021/10/06 05:33:43;;;;;;;0.57;0.57;;;12.50;99.90;;;;;;4415148;32;20140;-68
2021/10/06 05:36:31;;;;;;;0.70;0.50;;;12.40;99.90;;;;;;4425137;32;20503;-67
2021/10/06 05:39:05;;;;;;;0.30;0.30;;;12.50;99.90;;;;;;4416823;32;20505;-68
2021/10/06 05:41:59;;;;;;;0.45;0.45;;;12.50;99.90;;;;;;4422575;32;20199;-70
2021/10/06 05:44:35;;;;;;;2.47;0.43;;;12.60;99.90;;;;;;4408947;32;20537;-67
2021/10/06 05:47:30;;;;;;;0.50;0.50;;;12.60;99.90;;;;;;4424982;32;20098;-67
2021/10/06 05:50:30;;;;;;;0.73;0.55;;;12.50;99.90;;;;;;4421344;32;20096;-68
2021/10/06 05:53:12;;;;;;;1.40;0.65;;;12.50;99.90;;;;;;4413523;32;20788;-69
2021/10/06 05:55:56;;;;;;;0.98;0.75;;;12.60;99.90;;;;;;4412321;32;20093;-67
2021/10/06 05:58:27;;;;;;;0.88;0.62;;;12.60;99.90;;;;;;4418351;32;20077;-67
2021/10/06 06:01:03;;;;;;;0.70;0.70;;;12.50;99.90;;;;;;4417172;32;20101;-68
2021/10/06 06:04:03;;;;;;;0.95;0.90;;;12.40;99.90;;;;;;4414825;32;20143;-68
2021/10/06 06:07:17;;;;;;;;;;;;;;;;;;;;;
2021/10/06 06:10:49;;;;;;;3.42;1.40;;;12.30;99.90;;;;;;4342559;32;20445;-69
2021/10/06 06:14:03;;;;;;;;;;;12.30;99.90;;;;;;4360957;32;20116;-66
2021/10/06 06:20:46;;;;;;;0.50;0.50;;;12.30;99.90;;;;;;4302727;33;20108;-67
2021/10/06 06:27:31;;;;;;;;;;;;;;;;;;;;;
2021/10/06 06:30:42;;;;;;;1.40;0.55;;;12.40;99.90;;;;;;4258443;33;20186;-66
2021/10/06 06:47:29;;;;;;;0.50;0.50;;;12.60;99.90;;;;;;4262278;33;20271;-68
2021/10/06 06:50:25;;;;;;;0.57;0.57;;;12.60;99.90;;;;;;4299262;32;20154;-68
2021/10/06 06:53:35;;;;;;;0.75;0.35;;;12.60;99.90;;;;;;4366823;32;20481;-69
2021/10/06 06:56:42;;;;;;;3.10;0.62;;;12.60;99.90;;;;;;4368480;32;20070;-68
2021/10/06 07:07:30;;;;;;;;;;;;;;;;;;;;;
2021/10/06 07:18:17;;;;;;;1.45;0.75;;;12.80;99.90;;;;;;4218156;33;20081;-71
2021/10/06 07:22:01;;;;;;;;;;;;;;;;;;;;;
2021/10/06 07:25:08;;;;;;;;;;;;;;;;;;;;;
2021/10/06 07:28:24;;;;;;;1.25;0.75;;;13.00;99.90;;;;;;4229194;33;20161;-69
2021/10/06 07:34:58;;;;;;;0.73;0.62;;;13.10;99.90;;;;;;4262744;33;20585;-70
2021/10/06 07:38:18;;;;;;;;;;;;;;;;;;;;;
2021/10/06 07:40:53;;;;;;;0.30;0.30;;;13.10;99.90;;;;;;4307119;33;20144;-68
2021/10/06 07:43:36;;;;;;;0.55;0.55;;;13.10;99.90;;;;;;4329616;33;20514;-73
2021/10/06 07:46:02;;;;;;;0.80;0.50;;;13.10;99.90;;;;;;4330959;33;20075;-64
2021/10/06 07:52:13;;;;;;;0.22;0.22;;;13.20;99.90;;;;;;4352090;32;20094;-68
2021/10/06 07:55:05;;;;;;;;;;;;;;;;;;;;;
2021/10/06 07:58:09;;;;;;;0.43;0.43;;;13.20;99.90;;;;;;4400841;32;20062;-68
2021/10/06 08:01:19;;;;;;;0.40;0.40;;;13.30;99.90;;;;;;4393159;32;20142;-69
2021/10/06 08:03:50;;;;;;;0.65;0.65;;;13.40;99.90;;;;;;4376070;32;20062;-67
2021/10/06 08:06:50;;;;;;;0.40;0.40;;;13.50;99.90;;;;;;4403561;32;20518;-68
2021/10/06 08:10:12;;;;;;;;;;;;;;;;;;;;;
2021/10/06 08:13:57;;;;;;;;;;;;;;;;;;;;;
2021/10/06 08:17:29;;;;;;;;;;;;;;;;;;;;;
2021/10/06 08:20:27;;;;;;;0.30;0.30;;;13.70;99.90;;;;;;4261945;33;20207;-69
2021/10/06 08:23:30;;;;;;;0.43;0.43;;;13.70;99.90;;;;;;4285862;33;20073;-69
2021/10/06 08:29:17;;;;;;;0.50;0.50;;;13.80;99.90;;;;;;4338278;32;20078;-69
2021/10/06 08:32:17;;;;;;;0.40;0.40;;;13.90;99.90;;;;;;4388422;32;20722;-67
2021/10/06 08:35:18;;;;;;;0.37;0.37;;;14.00;99.90;;;;;;4378818;32;20530;-66
2021/10/06 08:38:15;;;;;;;0.30;0.30;;;14.10;99.90;;;;;;4384065;32;20227;-68
2021/10/06 08:45:01;;;;;;;0.40;0.40;;;14.20;99.90;;;;;;4375364;32;20086;-70
2021/10/06 08:47:32;;;;;;;;;;;;;;;;;;;;;
2021/10/06 08:50:17;;;;;;;1.08;0.85;;;14.30;99.90;;;;;;4397672;32;20381;-69
2021/10/06 08:53:54;;;;;;;;;;;;;;;;;;;;;
2021/10/06 08:56:35;;;;;;;2.28;0.50;;;14.30;99.90;;;;;;4371885;32;20149;-69
2021/10/06 08:59:45;;;;;;;0.20;0.20;;;14.40;99.90;;;;;;4397880;32;20082;-68
2021/10/06 09:02:45;;;;;;;16.08;0.55;;;14.50;99.90;;;;;;4350034;32;20491;-68
2021/10/06 09:05:51;;;;;;;0.30;0.30;;;14.50;99.90;;;;;;4354448;32;20075;-68
2021/10/06 09:08:45;;;;;;;0.40;0.40;;;14.60;99.90;;;;;;4399929;32;20085;-71
2021/10/06 09:12:11;;;;;;;0.30;0.30;;;14.70;99.90;;;;;;4357194;32;20516;-70
2021/10/06 09:15:19;;;;;;;0.30;0.30;;;14.70;99.90;;;;;;4330879;32;20569;-70
2021/10/06 09:17:58;;;;;;;0.40;0.40;;;14.90;99.90;;;;;;4355008;32;20091;-69
2021/10/06 09:20:39;;;;;;;0.30;0.30;;;15.00;99.90;;;;;;4375147;32;20094;-69
2021/10/06 09:23:25;;;;;;;0.40;0.40;;;15.00;99.90;;;;;;4400232;32;20586;-68
2021/10/06 09:26:11;;;;;;;0.20;0.20;;;15.00;99.90;;;;;;4398718;32;20081;-69
2021/10/06 09:29:03;;;;;;;0.40;0.40;;;15.10;99.90;;;;;;4396961;32;20506;-69
2021/10/06 09:31:44;;;;;;;0.20;0.20;;;15.30;99.90;;;;;;4397457;32;20094;-70
2021/10/06 09:35:03;;;;;;;;;;;;;;;;;;;;;
2021/10/06 09:38:17;;;;;;;0.30;0.30;;;15.50;99.90;;;;;;4402870;32;20568;-69
2021/10/06 09:41:34;;;;;;;0.30;0.30;;;15.50;99.90;;;;;;4402817;32;20159;-70
2021/10/06 09:44:28;;;;;;;0.30;0.30;;;15.50;99.90;;;;;;4377366;32;20098;-70
2021/10/06 09:47:35;;;;;;;0.40;0.40;;;15.60;99.90;;;;;;4401421;32;20310;-70
2021/10/06 09:50:09;;;;;;;0.30;0.30;;;15.70;99.90;;;;;;4403781;32;20137;-71
2021/10/06 09:53:09;;;;;;;0.30;0.30;;;15.80;99.90;;;;;;4403204;32;20078;-70
2021/10/06 09:56:26;;;;;;;;;;;;;;;;;;;;;
2021/10/06 09:59:12;;;;;;;0.40;0.40;;;15.90;99.90;;;;;;4319721;33;20158;-70
2021/10/06 10:02:09;;;;;;;;;;;;;;;;;;;;;
2021/10/06 10:04:45;;;;;;;0.30;0.30;;;16.00;99.90;;;;;;4298830;33;20075;-70
2021/10/06 10:07:36;;;;;;;4.47;1.75;;;16.00;99.90;;;;;;4328934;33;20408;-70
2021/10/06 10:10:11;;;;;;;0.30;0.30;;;15.90;99.90;;;;;;4360256;32;20133;-69
2021/10/06 10:12:38;;;;;;;0.30;0.30;;;16.00;99.90;;;;;;4401440;32;20691;-70
2021/10/06 10:15:04;;;;;;;0.45;0.45;;;16.00;99.90;;;;;;4406186;32;20062;-69
2021/10/06 10:17:30;;;;;;;0.30;0.30;;;16.20;99.90;;;;;;4397142;32;20503;-70
2021/10/06 10:20:00;;;;;;;0.30;0.30;;;16.30;99.90;;;;;;4393298;32;20233;-70
2021/10/06 10:22:31;;;;;;;0.30;0.30;;;16.40;99.90;;;;;;4395751;32;20653;-71
2021/10/06 10:24:57;;;;;;;0.20;0.20;;;16.40;99.90;;;;;;4398397;32;20282;-70
2021/10/06 10:27:25;;;;;;;0.30;0.30;;;16.40;99.90;;;;;;4397614;32;20186;-69
2021/10/06 10:30:06;;;;;;;0.60;0.60;;;16.50;99.90;;;;;;4404562;32;20114;-67
2021/10/06 10:32:43;;;;;;;0.30;0.30;;;16.50;99.90;;;;;;4398398;32;20077;-66
2021/10/06 10:35:12;;;;;;;0.73;0.73;;;16.50;99.90;;;;;;4397376;32;20635;-67
2021/10/06 10:37:58;;;;;;;0.35;0.35;;;16.40;99.90;;;;;;4399823;32;20085;-65
2021/10/06 10:40:37;;;;;;;0.20;0.20;;;16.40;99.90;;;;;;4399156;32;20416;-66
2021/10/06 10:43:24;;;;;;;0.40;0.40;;;16.30;99.90;;;;;;4397251;32;20062;-69
2021/10/06 10:46:02;;;;;;;0.30;0.30;;;16.20;99.90;;;;;;4401926;32;20085;-67
2021/10/06 10:48:30;;;;;;;0.30;0.30;;;16.20;99.90;;;;;;4401857;32;20098;-71
2021/10/06 10:50:58;;;;;;;0.32;0.32;;;16.10;99.90;;;;;;4398584;32;20109;-68
2021/10/06 10:53:52;;;;;;;0.37;0.37;;;16.00;99.90;;;;;;4400216;32;20108;-67
2021/10/06 10:56:43;;;;;;;0.88;0.47;;;16.00;99.90;;;;;;4397358;32;20122;-70
2021/10/06 10:59:11;;;;;;;0.30;0.30;;;15.90;99.90;;;;;;4398453;32;20082;-71
2021/10/06 11:01:54;;;;;;;0.30;0.30;;;15.90;99.90;;;;;;4402950;32;20515;-70
2021/10/06 11:04:24;;;;;;;0.37;0.37;;;15.90;99.90;;;;;;4390714;32;20490;-70
2021/10/06 11:06:53;;;;;;;0.30;0.30;;;15.90;99.90;;;;;;4393189;32;20077;-69
2021/10/06 11:09:36;;;;;;;0.30;0.30;;;16.00;99.90;;;;;;4395802;32;20590;-70
2021/10/06 11:12:12;;;;;;;0.62;0.40;;;16.10;99.90;;;;;;4395959;32;20078;-70
2021/10/06 11:14:40;;;;;;;0.62;0.62;;;16.10;99.90;;;;;;4398052;32;20444;-70
2021/10/06 11:17:09;;;;;;;6.65;0.52;;;16.10;99.90;;;;;;4406038;32;20086;-70
2021/10/06 11:20:04;;;;;;;0.30;0.30;;;16.20;99.90;;;;;;4400308;32;20860;-71
2021/10/06 11:22:34;;;;;;;17.08;0.50;;;16.30;99.90;;;;;;4401806;32;20484;-70
2021/10/06 11:25:24;;;;;;;0.80;0.80;;;16.40;99.90;;;;;;4399285;32;20070;-70
2021/10/06 11:28:10;;;;;;;0.30;0.30;;;16.50;99.90;;;;;;4397675;32;20066;-70
2021/10/06 11:30:57;;;;;;;0.30;0.30;;;16.60;99.90;;;;;;4406254;32;20085;-70
2021/10/06 11:33:55;;;;;;;0.35;0.35;;;16.50;99.90;;;;;;4401959;32;20106;-69
2021/10/06 11:36:27;;;;;;;0.30;0.30;;;16.40;99.90;;;;;;4389471;32;20531;-72
2021/10/06 11:39:08;;;;;;;0.30;0.30;;;16.40;99.90;;;;;;4403344;32;20115;-70
2021/10/06 11:41:44;;;;;;;0.50;0.50;;;16.40;99.90;;;;;;4400478;32;20148;-71
2021/10/06 11:44:17;;;;;;;1.75;0.98;;;16.30;99.90;;;;;;4400548;32;20347;-70
2021/10/06 11:46:45;;;;;;;0.50;0.50;;;16.30;99.90;;;;;;4396405;32;20081;-71
2021/10/06 11:49:18;;;;;;;0.30;0.30;;;16.20;99.90;;;;;;4400322;32;20400;-70
2021/10/06 11:51:47;;;;;;;0.50;0.50;;;16.20;99.90;;;;;;4395410;32;20127;-71
2021/10/06 11:54:36;;;;;;;0.30;0.30;;;16.40;99.90;;;;;;4395642;32;20067;-71
2021/10/06 11:57:13;;;;;;;0.40;0.40;;;16.50;99.90;;;;;;4396106;32;20618;-71
2021/10/06 11:59:46;;;;;;;0.37;0.37;;;16.80;99.90;;;;;;4396749;32;20120;-69
2021/10/06 12:02:21;;;;;;;0.40;0.40;;;16.80;99.90;;;;;;4392361;32;20069;-70
2021/10/06 12:04:56;;;;;;;0.30;0.30;;;16.80;99.90;;;;;;4395285;32;20102;-71
2021/10/06 12:07:29;;;;;;;0.52;0.52;;;16.70;99.90;;;;;;4396886;32;20077;-71
2021/10/06 12:10:09;;;;;;;0.30;0.30;;;16.60;99.90;;;;;;4395533;32;20102;-70
2021/10/06 12:12:43;;;;;;;0.30;0.30;;;16.60;99.90;;;;;;4396862;32;20133;-70
2021/10/06 12:15:26;;;;;;;0.30;0.30;;;16.70;99.90;;;;;;4396223;32;20086;-70
2021/10/06 12:18:10;;;;;;;0.30;0.30;;;16.70;99.90;;;;;;4395235;32;20162;-71
2021/10/06 12:20:58;;;;;;;;;;;;;;;;;;;;;
2021/10/06 12:23:35;;;;;;;0.40;0.40;;;16.60;99.90;;;;;;4394340;32;20066;-70
2021/10/06 12:26:07;;;;;;;0.40;0.40;;;16.60;99.90;;;;;;4395598;32;20622;-71
2021/10/06 12:28:59;;;;;;;0.30;0.30;;;16.60;99.90;;;;;;4394827;32;20538;-71
2021/10/06 12:31:28;;;;;;;0.40;0.40;;;16.60;99.90;;;;;;4394183;32;20587;-65
2021/10/06 12:34:13;;;;;;;0.43;0.43;;;16.50;99.90;;;;;;4394330;32;20088;-70
2021/10/06 12:36:57;;;;;;;0.40;0.40;;;16.60;99.90;;;;;;4390445;32;20078;-71
2021/10/06 12:39:36;;;;;;;0.45;0.45;;;16.70;99.90;;;;;;4395736;32;20089;-71
2021/10/06 12:42:08;;;;;;;0.35;0.35;;;16.80;99.90;;;;;;4391242;32;20082;-71
2021/10/06 12:45:09;;;;;;;1.25;1.00;;;16.90;99.90;;;;;;4392872;32;20148;-70
2021/10/06 12:47:46;;;;;;;;;;;16.90;99.90;;;;;;4393046;32;20160;-70
2021/10/06 12:50:17;;;;;;;0.20;0.20;;;16.90;99.90;;;;;;4402327;32;20010;-71
2021/10/06 12:52:47;;;;;;;0.30;0.30;;;16.90;99.90;;;;;;4402203;32;20077;-72
2021/10/06 12:55:13;;;;;;;0.65;0.50;;;16.90;99.90;;;;;;4400332;32;20078;-71
2021/10/06 12:57:41;;;;;;;0.70;0.70;;;17.00;99.90;;;;;;4395938;32;20422;-69
2021/10/06 13:00:23;;;;;;;0.30;0.30;;;16.80;99.90;;;;;;4403108;32;20063;-68
2021/10/06 13:02:51;;;;;;;5.32;1.35;;;16.80;99.90;;;;;;4404010;32;20533;-71
2021/10/06 13:05:21;;;;;;;2.35;0.55;;;16.80;99.90;;;;;;4404657;32;20082;-69
2021/10/06 13:07:47;;;;;;;0.30;0.30;;;16.90;99.90;;;;;;4404403;32;20121;-70
2021/10/06 13:10:21;;;;;;;0.50;0.47;;;16.80;99.90;;;;;;4409329;32;20073;-71
2021/10/06 13:13:15;;;;;;;0.30;0.30;;;16.90;99.90;;;;;;4409178;32;20086;-69
2021/10/06 13:16:37;;;;;;;0.62;0.47;;;16.80;99.90;;;;;;4395053;32;20170;-71
2021/10/06 13:19:45;;;;;;;0.30;0.30;;;16.90;99.90;;;;;;4355302;32;20066;-71
2021/10/06 13:22:10;;;;;;;0.20;0.20;;;16.90;99.90;;;;;;4407114;32;20077;-72
2021/10/06 13:25:13;;;;;;;0.30;0.30;;;17.00;99.90;;;;;;4403020;32;20492;-71
2021/10/06 13:27:37;;;;;;;0.32;0.32;;;17.00;99.90;;;;;;4403486;32;20115;-70
2021/10/06 13:30:14;;;;;;;0.45;0.45;;;17.00;99.90;;;;;;4400116;32;20582;-70
2021/10/06 13:32:40;;;;;;;0.50;0.50;;;16.90;99.90;;;;;;4406988;32;20136;-71
2021/10/06 13:35:12;;;;;;;0.30;0.30;;;16.80;99.90;;;;;;4401441;32;20066;-71
2021/10/06 13:38:13;;;;;;;;;;;;;;;;;;;;;
2021/10/06 13:41:09;;;;;;;0.45;0.45;;;16.90;99.90;;;;;;4401241;32;20137;-70
2021/10/06 13:43:44;;;;;;;0.28;0.28;;;17.00;99.90;;;;;;4399473;32;20550;-70
2021/10/06 13:46:39;;;;;;;0.30;0.30;;;16.90;99.90;;;;;;4404606;32;20070;-70
2021/10/06 13:49:46;;;;;;;0.32;0.32;;;16.90;99.90;;;;;;4351666;33;20072;-70
2021/10/06 13:52:53;;;;;;;1.90;1.25;;;16.90;99.90;;;;;;4329453;33;20470;-71
2021/10/06 13:55:31;;;;;;;0.77;0.77;;;16.80;99.90;;;;;;4325963;33;20564;-71
2021/10/06 13:58:03;;;;;;;0.40;0.40;;;16.80;99.90;;;;;;4352441;32;20066;-72
2021/10/06 14:00:50;;;;;;;0.40;0.40;;;16.70;99.90;;;;;;4380700;32;20472;-70
2021/10/06 14:03:15;;;;;;;0.30;0.30;;;16.70;99.90;;;;;;4408535;32;20091;-70
2021/10/06 14:06:16;;;;;;;0.32;0.32;;;16.70;99.90;;;;;;4396721;32;20074;-71
2021/10/06 14:08:48;;;;;;;0.30;0.30;;;16.70;99.90;;;;;;4399202;32;20098;-71
2021/10/06 14:12:22;;;;;;;;;;;;;;;;;;;;;
2021/10/06 14:15:02;;;;;;;;;;;;;;;;;;;;;
2021/10/06 14:18:33;;;;;;;0.30;0.30;;;16.50;99.90;;;;;;4380200;32;20141;-70
2021/10/06 14:21:14;;;;;;;16.65;0.50;;;16.60;99.90;;;;;;4321729;33;20900;-70
2021/10/06 14:23:51;;;;;;;0.50;0.50;;;16.60;99.90;;;;;;4322634;33;20258;-71
2021/10/06 14:26:23;;;;;;;0.40;0.40;;;16.60;99.90;;;;;;4320473;33;20421;-69
2021/10/06 14:28:57;;;;;;;0.30;0.30;;;16.50;99.90;;;;;;4322041;33;20097;-70
2021/10/06 14:31:41;;;;;;;0.30;0.30;;;16.30;99.90;;;;;;4316829;33;20132;-72
2021/10/06 14:34:06;;;;;;;0.35;0.35;;;16.20;99.90;;;;;;4306757;32;20167;-70
2021/10/06 14:36:38;;;;;;;1.10;1.00;;;16.10;99.90;;;;;;4378031;32;20528;-70
2021/10/06 14:39:13;;;;;;;0.30;0.30;;;16.10;99.90;;;;;;4400039;32;20113;-71
2021/10/06 14:42:02;;;;;;;7.32;1.40;;;16.10;99.90;;;;;;4396957;32;20074;-75
2021/10/06 14:44:35;;;;;;;0.35;0.35;;;16.10;99.90;;;;;;4399253;32;20310;-71
2021/10/06 14:47:26;;;;;;;0.40;0.40;;;16.00;99.90;;;;;;4400441;32;20083;-71
2021/10/06 14:50:18;;;;;;;0.43;0.43;;;16.10;99.90;;;;;;4399050;32;20086;-70
2021/10/06 14:52:53;;;;;;;0.80;0.52;;;16.00;99.90;;;;;;4366796;32;20462;-70
2021/10/06 14:55:22;;;;;;;0.40;0.40;;;15.90;99.90;;;;;;4366884;32;20070;-70
2021/10/06 14:57:58;;;;;;;0.30;0.30;;;16.00;99.90;;;;;;4400467;32;20132;-70
2021/10/06 15:00:51;;;;;;;0.37;0.37;;;16.00;99.90;;;;;;4407817;32;20069;-70
2021/10/06 15:03:37;;;;;;;0.30;0.30;;;16.00;99.90;;;;;;4407246;32;20137;-70
2021/10/06 15:06:30;;;;;;;3.72;1.20;;;16.00;99.90;;;;;;4403662;32;20066;-70
2021/10/06 15:09:23;;;;;;;0.37;0.37;;;16.00;99.90;;;;;;4414467;32;20073;-70
2021/10/06 15:11:50;;;;;;;0.50;0.50;;;16.00;99.90;;;;;;4404486;32;20082;-70
2021/10/06 15:14:22;;;;;;;0.25;0.25;;;16.10;99.90;;;;;;4399476;32;20539;-71
2021/10/06 15:17:20;;;;;;;0.47;0.47;;;16.10;99.90;;;;;;4411524;32;20506;-71
2021/10/06 15:20:13;;;;;;;0.50;0.50;;;16.10;99.90;;;;;;4414084;32;20117;-71
2021/10/06 15:23:22;;;;;;;0.40;0.40;;;16.10;99.90;;;;;;4414295;32;20452;-71
2021/10/06 15:26:11;;;;;;;0.40;0.40;;;16.00;99.90;;;;;;4398670;32;20089;-71
2021/10/06 15:29:01;;;;;;;;;;;;;;;;;;;;;
2021/10/06 15:32:15;;;;;;;0.60;0.60;;;16.00;99.90;;;;;;4380238;32;20078;-71
2021/10/06 15:41:28;;;;;;;0.30;0.30;;;16.10;99.90;;;;;;4414295;32;20445;-71
2021/10/06 15:44:01;;;;;;;0.82;0.62;;;16.00;99.90;;;;;;4413716;32;20143;-70
2021/10/06 15:46:41;;;;;;;0.30;0.30;;;16.00;99.90;;;;;;4414213;32;20078;-70
2021/10/06 15:49:10;;;;;;;0.30;0.30;;;16.00;99.90;;;;;;4399545;32;20095;-70
2021/10/06 15:51:51;;;;;;;0.35;0.35;;;16.00;99.90;;;;;;4398448;32;20480;-72
2021/10/06 15:54:51;;;;;;;0.40;0.40;;;16.00;99.90;;;;;;4399462;32;20087;-71
2021/10/06 15:57:23;;;;;;;0.70;0.50;;;15.90;99.90;;;;;;4395155;32;20503;-70
2021/10/06 16:00:23;;;;;;;0.30;0.30;;;16.00;99.90;;;;;;4400706;32;20144;-71
2021/10/06 16:03:26;;;;;;;;;;;;;;;;;;;;;
2021/10/06 16:06:34;;;;;;;0.40;0.40;;;15.90;99.90;;;;;;4399072;32;20141;-70
2021/10/06 16:09:36;;;;;;;0.30;0.30;;;15.90;99.90;;;;;;4393808;32;20382;-71
2021/10/06 16:12:02;;;;;;;0.45;0.45;;;15.70;99.90;;;;;;4400766;32;20092;-71
2021/10/06 16:15:08;;;;;;;0.52;0.52;;;15.60;99.90;;;;;;4402107;32;20086;-71
2021/10/06 16:17:37;;;;;;;0.40;0.40;;;15.50;99.90;;;;;;4381216;32;20416;-71
2021/10/06 16:20:28;;;;;;;0.50;0.50;;;15.40;99.90;;;;;;4400618;32;20066;-71
2021/10/06 16:22:56;;;;;;;0.40;0.40;;;15.30;99.90;;;;;;4400343;32;20157;-72
2021/10/06 16:25:34;;;;;;;0.90;0.73;;;15.30;99.90;;;;;;4400785;32;20554;-70
2021/10/06 16:31:37;;;;;;;;;;;;;;;;;;;;;
2021/10/06 16:34:36;;;;;;;0.60;0.60;;;14.90;99.90;;;;;;4397368;32;20129;-70
2021/10/06 16:37:22;;;;;;;0.40;0.40;;;14.90;99.90;;;;;;4413744;32;20453;-70
2021/10/06 16:39:51;;;;;;;0.40;0.40;;;14.90;99.90;;;;;;4414192;32;20469;-71
2021/10/06 16:42:17;;;;;;;0.32;0.32;;;14.90;99.90;;;;;;4415894;32;20070;-70
2021/10/06 16:44:43;;;;;;;4.55;1.80;;;14.90;99.90;;;;;;4415821;32;20106;-71
2021/10/06 16:54:17;;;;;;;0.40;0.40;;;14.60;99.90;;;;;;4376540;32;20104;-70
2021/10/06 16:56:45;;;;;;;0.40;0.40;;;14.60;99.90;;;;;;4381495;32;20302;-70
2021/10/06 16:59:14;;;;;;;5.72;1.23;;;14.60;99.90;;;;;;4384481;32;20090;-70
2021/10/06 17:01:51;;;;;;;;;;;;;;;;;;;;;
2021/10/06 17:04:59;;;;;;;0.50;0.50;;;14.60;99.90;;;;;;4395322;32;20095;-70
2021/10/06 17:08:00;;;;;;;0.32;0.32;;;14.50;99.90;;;;;;4389487;32;20413;-71
2021/10/06 17:10:25;;;;;;;0.50;0.50;;;14.50;99.90;;;;;;4400951;32;20057;-70
2021/10/06 17:12:51;;;;;;;0.40;0.40;;;14.50;99.90;;;;;;4401153;32;20078;-70
2021/10/06 17:15:17;;;;;;;0.82;0.82;;;14.50;99.90;;;;;;4402211;32;20058;-70
2021/10/06 17:17:51;;;;;;;0.40;0.40;;;14.40;99.90;;;;;;4401882;32;20070;-70
2021/10/06 17:20:33;;;;;;;0.30;0.30;;;14.50;99.90;;;;;;4401821;32;20061;-70
2021/10/06 17:23:24;;;;;;;0.35;0.35;;;14.70;99.90;;;;;;4401625;32;20078;-70
2021/10/06 17:32:33;;;;;;;0.68;0.68;;;14.40;99.90;;;;;;4376724;32;20094;-70
2021/10/06 17:35:16;;;;;;;0.40;0.40;;;14.20;99.90;;;;;;4402679;32;20097;-69
2021/10/06 17:38:07;;;;;;;0.50;0.50;;;14.00;99.90;;;;;;4414226;32;20066;-70
2021/10/06 17:40:33;;;;;;;0.40;0.40;;;14.00;99.90;;;;;;4416101;32;20136;-70
2021/10/06 17:43:04;;;;;;;0.55;0.55;;;13.90;99.90;;;;;;4417171;32;20086;-70
2021/10/06 17:45:31;;;;;;;0.35;0.35;;;13.80;99.90;;;;;;4416947;32;20065;-70
2021/10/06 17:48:09;;;;;;;0.40;0.40;;;13.70;99.90;;;;;;4411295;32;20094;-70
2021/10/06 17:50:35;;;;;;;0.40;0.40;;;13.70;99.90;;;;;;4399922;32;20065;-70
2021/10/06 17:53:02;;;;;;;0.28;0.28;;;13.80;99.90;;;;;;4400859;32;20062;-70
2021/10/06 17:56:16;;;;;;;;;;;;;;;;;;;;;
2021/10/06 17:59:05;;;;;;;0.30;0.30;;;13.70;99.90;;;;;;4333869;32;20083;-70
2021/10/06 18:02:07;;;;;;;0.60;0.60;;;13.70;99.90;;;;;;4400219;32;20077;-69
2021/10/06 18:04:35;;;;;;;1.30;0.85;;;13.80;99.90;;;;;;4399944;32;20094;-70
2021/10/06 18:07:03;;;;;;;0.30;0.30;;;13.70;99.90;;;;;;4399290;32;20087;-71
2021/10/06 18:09:32;;;;;;;0.30;0.30;;;13.60;99.90;;;;;;4400061;32;20095;-70
2021/10/06 18:11:57;;;;;;;0.37;0.37;;;13.50;99.90;;;;;;4400009;32;20505;-71
2021/10/06 18:14:26;;;;;;;0.45;0.45;;;13.50;99.90;;;;;;4401273;32;20074;-71
2021/10/06 18:17:04;;;;;;;10.55;2.35;;;13.40;99.90;;;;;;4399882;32;20523;-71
2021/10/06 18:19:29;;;;;;;0.30;0.30;;;13.40;99.90;;;;;;4400377;32;20445;-74
2021/10/06 18:21:58;;;;;;;0.45;0.45;;;13.40;99.90;;;;;;4399771;32;20071;-70
2021/10/06 18:24:29;;;;;;;0.30;0.30;;;13.40;99.90;;;;;;4399961;32;20157;-72
2021/10/06 18:26:55;;;;;;;0.37;0.37;;;13.40;99.90;;;;;;4399270;32;20066;-69
2021/10/06 18:29:20;;;;;;;0.40;0.40;;;13.40;99.90;;;;;;4399055;32;20495;-70
2021/10/06 18:31:46;;;;;;;0.32;0.32;;;13.30;99.90;;;;;;4398775;32;20502;-70
2021/10/06 18:34:12;;;;;;;0.40;0.40;;;13.40;99.90;;;;;;4398236;32;20078;-69
2021/10/06 18:36:37;;;;;;;0.30;0.30;;;13.40;99.90;;;;;;4405059;32;20121;-71
2021/10/06 18:39:04;;;;;;;0.35;0.35;;;13.50;99.90;;;;;;4413702;32;20066;-70
2021/10/06 18:41:30;;;;;;;0.40;0.40;;;13.70;99.90;;;;;;4413337;32;20408;-70
2021/10/06 18:43:56;;;;;;;0.40;0.40;;;13.80;99.90;;;;;;4414579;32;20081;-70
2021/10/06 18:46:21;;;;;;;0.57;0.57;;;13.70;99.90;;;;;;4413990;32;20542;-70
2021/10/06 18:48:47;;;;;;;0.37;0.37;;;13.70;99.90;;;;;;4413526;32;20069;-70
2021/10/06 18:51:13;;;;;;;0.65;0.65;;;13.60;99.90;;;;;;4410061;32;20070;-70
2021/10/06 18:53:38;;;;;;;0.62;0.62;;;13.60;99.90;;;;;;4399125;32;20111;-70
2021/10/06 18:56:05;;;;;;;0.50;0.50;;;13.60;99.90;;;;;;4397577;32;20078;-70
2021/10/06 18:58:31;;;;;;;0.52;0.52;;;13.60;99.90;;;;;;4398664;32;20109;-71
2021/10/06 19:00:56;;;;;;;0.75;0.75;;;13.50;99.90;;;;;;4398226;32;20078;-70
2021/10/06 19:03:22;;;;;;;0.43;0.43;;;13.50;99.90;;;;;;4398239;32;20066;-70
2021/10/06 19:05:48;;;;;;;0.30;0.30;;;13.50;99.90;;;;;;4399614;32;20226;-70
2021/10/06 19:08:14;;;;;;;0.35;0.35;;;13.60;99.90;;;;;;4398619;32;20082;-70
2021/10/06 19:10:40;;;;;;;0.30;0.30;;;13.70;99.90;;;;;;4398746;32;20070;-70
2021/10/06 19:13:10;;;;;;;1.70;1.20;;;13.70;99.90;;;;;;4398427;32;20070;-70
2021/10/06 19:15:38;;;;;;;0.30;0.30;;;13.50;99.90;;;;;;4399214;32;20074;-70
2021/10/06 19:18:05;;;;;;;3.30;1.20;;;13.50;99.90;;;;;;4398417;32;20079;-70
2021/10/06 19:20:31;;;;;;;0.40;0.40;;;13.40;99.90;;;;;;4398272;32;20086;-70
2021/10/06 19:22:57;;;;;;;1.58;1.10;;;13.20;99.90;;;;;;4399206;32;20480;-70
2021/10/06 19:25:22;;;;;;;0.20;0.20;;;13.10;99.90;;;;;;4398846;32;20081;-70
2021/10/06 19:27:48;;;;;;;0.43;0.43;;;13.10;99.90;;;;;;4398928;32;20534;-70
2021/10/06 19:30:13;;;;;;;0.50;0.50;;;12.90;99.90;;;;;;4398343;32;20130;-70
2021/10/06 19:32:39;;;;;;;0.50;0.50;;;12.80;99.90;;;;;;4397802;32;20166;-70
2021/10/06 19:35:07;;;;;;;0.20;0.20;;;12.70;99.90;;;;;;4398518;32;20121;-70
2021/10/06 19:37:33;;;;;;;0.43;0.43;;;12.80;99.90;;;;;;4408372;32;20445;-70